sensor_id;sensor_type;location;lat;lon;timestamp;pressure;altitude;pressure_sealevel;temperature;humidity
30110;BME280;14965;50.660;13.226;2024-02-16T00:01:35;94887.88;;;7.76;100.00
30110;BME280;14965;50.660;13.226;2024-02-16T00:04:01;94882.81;;;7.74;100.00
30110;BME280;14965;50.660;13.226;2024-02-16T00:06:27;94880.06;;;7.74;100.00
30110;BME280;14965;50.660;13.226;2024-02-16T00:08:52;94882.81;;;7.74;100.00
30110;BME280;14965;50.660;13.226;2024-02-16T00:11:18;94870.63;;;7.76;100.00
30110;BME280;14965;50.660;13.226;2024-02-16T00:13:46;94867.88;;;7.76;100.00
30110;BME280;14965;50.660;13.226;2024-02-16T00:16:12;94866.66;;;7.77;100.00
30110;BME280;14965;50.660;13.226;2024-02-16T00:18:37;94876.50;;;7.78;100.00
30110;BME280;14965;50.660;13.226;2024-02-16T00:21:04;94875.69;;;7.77;100.00
30110;BME280;14965;50.660;13.226;2024-02-16T00:23:30;94874.16;;;7.76;100.00
30110;BME280;14965;50.660;13.226;2024-02-16T00:25:56;94887.13;;;7.76;100.00
30110;BME280;14965;50.660;13.226;2024-02-16T00:28:21;94882.75;;;7.78;100.00
30110;BME280;14965;50.660;13.226;2024-02-16T00:30:49;94878.81;;;7.79;100.00
30110;BME280;14965;50.660;13.226;2024-02-16T00:33:15;94865.50;;;7.78;100.00
30110;BME280;14965;50.660;13.226;2024-02-16T00:35:41;94874.84;;;7.80;100.00
30110;BME280;14965;50.660;13.226;2024-02-16T00:38:07;94865.50;;;7.78;100.00
30110;BME280;14965;50.660;13.226;2024-02-16T00:40:32;94864.78;;;7.73;100.00
30110;BME280;14965;50.660;13.226;2024-02-16T00:42:58;94871.88;;;7.71;100.00
30110;BME280;14965;50.660;13.226;2024-02-16T00:45:24;94865.63;;;7.70;100.00
30110;BME280;14965;50.660;13.226;2024-02-16T00:47:51;94860.06;;;7.74;100.00
30110;BME280;14965;50.660;13.226;2024-02-16T00:50:17;94862.44;;;7.72;100.00
30110;BME280;14965;50.660;13.226;2024-02-16T00:52:43;94859.34;;;7.70;100.00
30110;BME280;14965;50.660;13.226;2024-02-16T00:55:09;94848.75;;;7.68;100.00
30110;BME280;14965;50.660;13.226;2024-02-16T00:57:35;94847.91;;;7.71;100.00
30110;BME280;14965;50.660;13.226;2024-02-16T01:00:01;94845.59;;;7.70;100.00
30110;BME280;14965;50.660;13.226;2024-02-16T01:02:30;94851.03;;;7.73;100.00
30110;BME280;14965;50.660;13.226;2024-02-16T01:04:57;94844.03;;;7.69;100.00
30110;BME280;14965;50.660;13.226;2024-02-16T01:07:23;94851.50;;;7.68;100.00
30110;BME280;14965;50.660;13.226;2024-02-16T01:09:49;94856.28;;;7.64;100.00
30110;BME280;14965;50.660;13.226;2024-02-16T01:12:15;94850.78;;;7.64;100.00
30110;BME280;14965;50.660;13.226;2024-02-16T01:14:41;94844.94;;;7.62;100.00
30110;BME280;14965;50.660;13.226;2024-02-16T01:17:07;94847.25;;;7.64;100.00
30110;BME280;14965;50.660;13.226;2024-02-16T01:19:33;94853.53;;;7.64;100.00
30110;BME280;14965;50.660;13.226;2024-02-16T01:22:00;94846.50;;;7.63;100.00
30110;BME280;14965;50.660;13.226;2024-02-16T01:24:26;94842.97;;;7.63;100.00
30110;BME280;14965;50.660;13.226;2024-02-16T01:26:52;94839.03;;;7.64;100.00
30110;BME280;14965;50.660;13.226;2024-02-16T01:29:18;94834.66;;;7.66;100.00
30110;BME280;14965;50.660;13.226;2024-02-16T01:31:44;94838.19;;;7.67;100.00
30110;BME280;14965;50.660;13.226;2024-02-16T01:34:10;94840.94;;;7.67;100.00
30110;BME280;14965;50.660;13.226;2024-02-16T01:36:35;94837.75;;;7.68;100.00
30110;BME280;14965;50.660;13.226;2024-02-16T01:39:03;94833.47;;;7.67;100.00
30110;BME280;14965;50.660;13.226;2024-02-16T01:41:29;94833.91;;;7.66;100.00
30110;BME280;14965;50.660;13.226;2024-02-16T01:43:54;94839.78;;;7.64;100.00
30110;BME280;14965;50.660;13.226;2024-02-16T01:46:21;94833.13;;;7.65;100.00
30110;BME280;14965;50.660;13.226;2024-02-16T01:48:47;94824.88;;;7.65;100.00
30110;BME280;14965;50.660;13.226;2024-02-16T01:51:13;94832.75;;;7.63;100.00
30110;BME280;14965;50.660;13.226;2024-02-16T01:53:40;94817.81;;;7.64;100.00
30110;BME280;14965;50.660;13.226;2024-02-16T01:56:08;94813.50;;;7.63;100.00
30110;BME280;14965;50.660;13.226;2024-02-16T01:58:34;94813.88;;;7.65;100.00
30110;BME280;14965;50.660;13.226;2024-02-16T02:01:00;94813.50;;;7.63;100.00
30110;BME280;14965;50.660;13.226;2024-02-16T02:03:26;94813.94;;;7.62;100.00
30110;BME280;14965;50.660;13.226;2024-02-16T02:05:52;94813.16;;;7.61;100.00
30110;BME280;14965;50.660;13.226;2024-02-16T02:08:18;94820.22;;;7.62;100.00
30110;BME280;14965;50.660;13.226;2024-02-16T02:10:44;94817.53;;;7.59;100.00
30110;BME280;14965;50.660;13.226;2024-02-16T02:13:11;94815.53;;;7.59;100.00
30110;BME280;14965;50.660;13.226;2024-02-16T02:15:37;94813.56;;;7.60;100.00
30110;BME280;14965;50.660;13.226;2024-02-16T02:18:03;94819.84;;;7.60;100.00
30110;BME280;14965;50.660;13.226;2024-02-16T02:20:29;94810.09;;;7.56;100.00
30110;BME280;14965;50.660;13.226;2024-02-16T02:22:56;94806.59;;;7.55;100.00
30110;BME280;14965;50.660;13.226;2024-02-16T02:25:22;94816.03;;;7.54;100.00
30110;BME280;14965;50.660;13.226;2024-02-16T02:27:48;94817.25;;;7.53;100.00
30110;BME280;14965;50.660;13.226;2024-02-16T02:30:14;94821.97;;;7.53;100.00
30110;BME280;14965;50.660;13.226;2024-02-16T02:32:39;94809.81;;;7.50;100.00
30110;BME280;14965;50.660;13.226;2024-02-16T02:35:08;94818.97;;;7.43;100.00
30110;BME280;14965;50.660;13.226;2024-02-16T02:37:34;94818.19;;;7.43;100.00
30110;BME280;14965;50.660;13.226;2024-02-16T02:40:02;94818.25;;;7.39;100.00
30110;BME280;14965;50.660;13.226;2024-02-16T02:42:28;94823.75;;;7.39;100.00
30110;BME280;14965;50.660;13.226;2024-02-16T02:44:54;94826.56;;;7.36;100.00
30110;BME280;14965;50.660;13.226;2024-02-16T02:47:20;94827.41;;;7.33;100.00
30110;BME280;14965;50.660;13.226;2024-02-16T02:49:46;94823.88;;;7.32;100.00
30110;BME280;14965;50.660;13.226;2024-02-16T02:52:12;94821.13;;;7.32;100.00
30110;BME280;14965;50.660;13.226;2024-02-16T02:54:37;94825.06;;;7.31;100.00
30110;BME280;14965;50.660;13.226;2024-02-16T02:57:05;94819.56;;;7.31;100.00
30110;BME280;14965;50.660;13.226;2024-02-16T02:59:31;94818.06;;;7.27;100.00
30110;BME280;14965;50.660;13.226;2024-02-16T03:01:57;94823.22;;;7.24;100.00
30110;BME280;14965;50.660;13.226;2024-02-16T03:04:23;94814.97;;;7.24;100.00
30110;BME280;14965;50.660;13.226;2024-02-16T03:06:51;94823.72;;;7.19;100.00
30110;BME280;14965;50.660;13.226;2024-02-16T03:09:17;94823.75;;;7.16;100.00
30110;BME280;14965;50.660;13.226;2024-02-16T03:11:43;94827.00;;;7.11;100.00
30110;BME280;14965;50.660;13.226;2024-02-16T03:14:10;94824.63;;;7.09;100.00
30110;BME280;14965;50.660;13.226;2024-02-16T03:16:36;94820.34;;;7.08;100.00
30110;BME280;14965;50.660;13.226;2024-02-16T03:19:06;94828.63;;;7.05;100.00
30110;BME280;14965;50.660;13.226;2024-02-16T03:21:32;94827.88;;;7.04;100.00
30110;BME280;14965;50.660;13.226;2024-02-16T03:23:58;94828.34;;;6.99;100.00
30110;BME280;14965;50.660;13.226;2024-02-16T03:26:23;94826.06;;;6.94;100.00
30110;BME280;14965;50.660;13.226;2024-02-16T03:28:49;94826.84;;;6.94;100.00
30110;BME280;14965;50.660;13.226;2024-02-16T03:31:18;94820.94;;;6.96;100.00
30110;BME280;14965;50.660;13.226;2024-02-16T03:33:45;94823.34;;;6.94;100.00
30110;BME280;14965;50.660;13.226;2024-02-16T03:36:12;94809.59;;;6.94;100.00
30110;BME280;14965;50.660;13.226;2024-02-16T03:38:41;94813.47;;;6.96;100.00
30110;BME280;14965;50.660;13.226;2024-02-16T03:41:07;94809.13;;;6.99;100.00
30110;BME280;14965;50.660;13.226;2024-02-16T03:43:32;94812.69;;;6.96;100.00
30110;BME280;14965;50.660;13.226;2024-02-16T03:45:58;94802.88;;;6.98;100.00
30110;BME280;14965;50.660;13.226;2024-02-16T03:48:25;94815.78;;;6.98;100.00
30110;BME280;14965;50.660;13.226;2024-02-16T03:50:51;94813.91;;;6.95;100.00
30110;BME280;14965;50.660;13.226;2024-02-16T03:53:17;94812.28;;;6.97;100.00
30110;BME280;14965;50.660;13.226;2024-02-16T03:55:43;94813.91;;;6.95;100.00
30110;BME280;14965;50.660;13.226;2024-02-16T03:58:10;94816.22;;;6.96;100.00
30110;BME280;14965;50.660;13.226;2024-02-16T04:00:36;94820.88;;;6.99;100.00
30110;BME280;14965;50.660;13.226;2024-02-16T04:03:02;94812.34;;;6.94;100.00
30110;BME280;14965;50.660;13.226;2024-02-16T04:05:29;94818.53;;;6.98;100.00
30110;BME280;14965;50.660;13.226;2024-02-16T04:07:55;94821.66;;;7.00;100.00
30110;BME280;14965;50.660;13.226;2024-02-16T04:10:21;94824.03;;;6.98;100.00
30110;BME280;14965;50.660;13.226;2024-02-16T04:12:47;94817.72;;;7.01;100.00
30110;BME280;14965;50.660;13.226;2024-02-16T04:15:13;94831.88;;;6.99;100.00
30110;BME280;14965;50.660;13.226;2024-02-16T04:17:38;94834.13;;;7.05;100.00
30110;BME280;14965;50.660;13.226;2024-02-16T04:20:06;94835.69;;;7.06;100.00
30110;BME280;14965;50.660;13.226;2024-02-16T04:22:33;94827.75;;;7.11;100.00
30110;BME280;14965;50.660;13.226;2024-02-16T04:24:59;94823.44;;;7.10;100.00
30110;BME280;14965;50.660;13.226;2024-02-16T04:27:25;94821.13;;;7.09;100.00
30110;BME280;14965;50.660;13.226;2024-02-16T04:29:51;94816.00;;;7.11;100.00
30110;BME280;14965;50.660;13.226;2024-02-16T04:32:17;94814.44;;;7.10;100.00
30110;BME280;14965;50.660;13.226;2024-02-16T04:34:43;94825.41;;;7.10;100.00
30110;BME280;14965;50.660;13.226;2024-02-16T04:37:08;94822.25;;;7.11;100.00
30110;BME280;14965;50.660;13.226;2024-02-16T04:39:36;94826.19;;;7.10;100.00
30110;BME280;14965;50.660;13.226;2024-02-16T04:42:02;94822.66;;;7.10;100.00
30110;BME280;14965;50.660;13.226;2024-02-16T04:44:28;94820.69;;;7.10;100.00
30110;BME280;14965;50.660;13.226;2024-02-16T04:46:54;94831.28;;;7.12;100.00
30110;BME280;14965;50.660;13.226;2024-02-16T04:49:20;94830.13;;;7.09;100.00
30110;BME280;14965;50.660;13.226;2024-02-16T04:51:46;94834.84;;;7.09;100.00
30110;BME280;14965;50.660;13.226;2024-02-16T04:54:12;94831.34;;;7.08;100.00
30110;BME280;14965;50.660;13.226;2024-02-16T04:56:39;94833.31;;;7.08;100.00
30110;BME280;14965;50.660;13.226;2024-02-16T04:59:05;94836.81;;;7.08;100.00
30110;BME280;14965;50.660;13.226;2024-02-16T05:01:31;94836.81;;;7.08;100.00
30110;BME280;14965;50.660;13.226;2024-02-16T05:03:58;94827.75;;;7.11;100.00
30110;BME280;14965;50.660;13.226;2024-02-16T05:06:24;94834.38;;;7.14;100.00
30110;BME280;14965;50.660;13.226;2024-02-16T05:08:49;94830.78;;;7.17;100.00
30110;BME280;14965;50.660;13.226;2024-02-16T05:11:15;94835.47;;;7.20;100.00
30110;BME280;14965;50.660;13.226;2024-02-16T05:13:43;94844.81;;;7.22;100.00
30110;BME280;14965;50.660;13.226;2024-02-16T05:16:09;94835.03;;;7.21;100.00
30110;BME280;14965;50.660;13.226;2024-02-16T05:18:35;94841.63;;;7.28;100.00
30110;BME280;14965;50.660;13.226;2024-02-16T05:21:00;94827.03;;;7.31;100.00
30110;BME280;14965;50.660;13.226;2024-02-16T05:23:26;94823.13;;;7.32;100.00
30110;BME280;14965;50.660;13.226;2024-02-16T05:25:52;94818.44;;;7.29;100.00
30110;BME280;14965;50.660;13.226;2024-02-16T05:28:18;94820.00;;;7.30;100.00
30110;BME280;14965;50.660;13.226;2024-02-16T05:30:45;94825.25;;;7.20;100.00
30110;BME280;14965;50.660;13.226;2024-02-16T05:33:11;94817.34;;;7.22;100.00
30110;BME280;14965;50.660;13.226;2024-02-16T05:35:37;94821.69;;;7.23;100.00
30110;BME280;14965;50.660;13.226;2024-02-16T05:38:03;94808.78;;;7.20;100.00
30110;BME280;14965;50.660;13.226;2024-02-16T05:40:29;94810.75;;;7.20;100.00
30110;BME280;14965;50.660;13.226;2024-02-16T05:42:56;94816.59;;;7.22;100.00
30110;BME280;14965;50.660;13.226;2024-02-16T05:45:22;94818.22;;;7.19;100.00
30110;BME280;14965;50.660;13.226;2024-02-16T05:47:50;94822.91;;;7.19;100.00
30110;BME280;14965;50.660;13.226;2024-02-16T05:50:17;94815.09;;;7.17;100.00
30110;BME280;14965;50.660;13.226;2024-02-16T05:52:43;94811.16;;;7.18;100.00
30110;BME280;14965;50.660;13.226;2024-02-16T05:55:10;94808.81;;;7.17;100.00
30110;BME280;14965;50.660;13.226;2024-02-16T05:57:37;94806.44;;;7.19;100.00
30110;BME280;14965;50.660;13.226;2024-02-16T06:00:04;94821.69;;;7.23;100.00
30110;BME280;14965;50.660;13.226;2024-02-16T06:02:33;94822.44;;;7.24;100.00
30110;BME280;14965;50.660;13.226;2024-02-16T06:05:01;94816.19;;;7.23;100.00
30110;BME280;14965;50.660;13.226;2024-02-16T06:07:27;94824.47;;;7.20;100.00
30110;BME280;14965;50.660;13.226;2024-02-16T06:09:54;94821.78;;;7.16;100.00
30110;BME280;14965;50.660;13.226;2024-02-16T06:12:20;94823.03;;;7.12;100.00
30110;BME280;14965;50.660;13.226;2024-02-16T06:14:46;94814.84;;;7.08;100.00
30110;BME280;14965;50.660;13.226;2024-02-16T06:17:12;94815.56;;;7.12;100.00
30110;BME280;14965;50.660;13.226;2024-02-16T06:19:38;94820.25;;;7.15;100.00
30110;BME280;14965;50.660;13.226;2024-02-16T06:22:05;94817.06;;;7.17;100.00
30110;BME280;14965;50.660;13.226;2024-02-16T06:24:31;94820.59;;;7.17;100.00
30110;BME280;14965;50.660;13.226;2024-02-16T06:26:58;94818.97;;;7.20;100.00
30110;BME280;14965;50.660;13.226;2024-02-16T06:29:24;94817.72;;;7.24;100.00
30110;BME280;14965;50.660;13.226;2024-02-16T06:31:50;94814.50;;;7.30;100.00
30110;BME280;14965;50.660;13.226;2024-02-16T06:34:17;94831.34;;;7.32;100.00
30110;BME280;14965;50.660;13.226;2024-02-16T06:36:43;94830.50;;;7.35;100.00
30110;BME280;14965;50.660;13.226;2024-02-16T06:39:11;94826.91;;;7.38;100.00
30110;BME280;14965;50.660;13.226;2024-02-16T06:41:37;94824.88;;;7.42;100.00
30110;BME280;14965;50.660;13.226;2024-02-16T06:44:04;94825.22;;;7.44;100.00
30110;BME280;14965;50.660;13.226;2024-02-16T06:46:30;94837.75;;;7.48;100.00
30110;BME280;14965;50.660;13.226;2024-02-16T06:48:55;94831.81;;;7.50;99.79
30110;BME280;14965;50.660;13.226;2024-02-16T06:51:22;94841.59;;;7.51;99.40
30110;BME280;14965;50.660;13.226;2024-02-16T06:53:48;94832.97;;;7.53;99.91
30110;BME280;14965;50.660;13.226;2024-02-16T06:56:15;94832.97;;;7.53;98.63
30110;BME280;14965;50.660;13.226;2024-02-16T06:58:41;94821.59;;;7.51;98.12
30110;BME280;14965;50.660;13.226;2024-02-16T07:01:07;94812.91;;;7.52;98.27
30110;BME280;14965;50.660;13.226;2024-02-16T07:03:33;94810.88;;;7.56;97.97
30110;BME280;14965;50.660;13.226;2024-02-16T07:05:59;94819.00;;;7.63;96.58
30110;BME280;14965;50.660;13.226;2024-02-16T07:08:25;94816.91;;;7.71;96.64
30110;BME280;14965;50.660;13.226;2024-02-16T07:10:51;94817.56;;;7.79;95.97
30110;BME280;14965;50.660;13.226;2024-02-16T07:13:18;94811.06;;;7.89;96.08
30110;BME280;14965;50.660;13.226;2024-02-16T07:15:44;94809.31;;;7.98;95.28
30110;BME280;14965;50.660;13.226;2024-02-16T07:18:11;94810.09;;;7.99;94.97
30110;BME280;14965;50.660;13.226;2024-02-16T07:20:37;94821.03;;;8.03;94.55
30110;BME280;14965;50.660;13.226;2024-02-16T07:23:03;94817.00;;;8.07;94.28
30110;BME280;14965;50.660;13.226;2024-02-16T07:25:29;94817.34;;;8.09;93.60
30110;BME280;14965;50.660;13.226;2024-02-16T07:27:55;94817.56;;;8.18;93.41
30110;BME280;14965;50.660;13.226;2024-02-16T07:30:23;94822.97;;;8.22;92.07
30110;BME280;14965;50.660;13.226;2024-02-16T07:32:49;94824.47;;;8.27;91.52
30110;BME280;14965;50.660;13.226;2024-02-16T07:35:14;94822.00;;;8.32;91.16
30110;BME280;14965;50.660;13.226;2024-02-16T07:37:40;94820.75;;;8.37;90.17
30110;BME280;14965;50.660;13.226;2024-02-16T07:40:09;94824.63;;;8.39;89.28
30110;BME280;14965;50.660;13.226;2024-02-16T07:42:38;94828.78;;;8.47;89.01
30110;BME280;14965;50.660;13.226;2024-02-16T07:45:05;94825.88;;;8.55;88.82
30110;BME280;14965;50.660;13.226;2024-02-16T07:47:33;94817.88;;;8.60;89.75
30110;BME280;14965;50.660;13.226;2024-02-16T07:49:59;94808.78;;;8.63;88.43
30110;BME280;14965;50.660;13.226;2024-02-16T07:52:24;94808.00;;;8.63;88.77
30110;BME280;14965;50.660;13.226;2024-02-16T07:54:50;94822.03;;;8.68;88.90
30110;BME280;14965;50.660;13.226;2024-02-16T07:57:16;94824.69;;;8.72;87.67
30110;BME280;14965;50.660;13.226;2024-02-16T07:59:42;94818.44;;;8.71;86.82
30110;BME280;14965;50.660;13.226;2024-02-16T08:02:08;94825.75;;;8.78;87.55
30110;BME280;14965;50.660;13.226;2024-02-16T08:04:35;94822.81;;;8.85;88.13
30110;BME280;14965;50.660;13.226;2024-02-16T08:07:01;94829.38;;;8.91;87.39
30110;BME280;14965;50.660;13.226;2024-02-16T08:09:28;94833.25;;;8.94;84.35
30110;BME280;14965;50.660;13.226;2024-02-16T08:11:53;94833.63;;;8.96;85.28
30110;BME280;14965;50.660;13.226;2024-02-16T08:14:19;94833.34;;;8.90;84.92
30110;BME280;14965;50.660;13.226;2024-02-16T08:16:45;94833.06;;;8.85;85.87
30110;BME280;14965;50.660;13.226;2024-02-16T08:19:11;94835.13;;;8.81;86.14
30110;BME280;14965;50.660;13.226;2024-02-16T08:21:38;94832.38;;;8.81;86.52
30110;BME280;14965;50.660;13.226;2024-02-16T08:24:05;94834.34;;;8.80;86.71
30110;BME280;14965;50.660;13.226;2024-02-16T08:26:32;94828.41;;;8.82;86.19
30110;BME280;14965;50.660;13.226;2024-02-16T08:28:58;94834.63;;;8.86;86.62
30110;BME280;14965;50.660;13.226;2024-02-16T08:31:24;94814.06;;;8.90;86.57
30110;BME280;14965;50.660;13.226;2024-02-16T08:33:50;94816.38;;;8.92;86.81
30110;BME280;14965;50.660;13.226;2024-02-16T08:36:16;94803.84;;;8.91;86.55
30110;BME280;14965;50.660;13.226;2024-02-16T08:38:43;94804.25;;;8.89;86.02
30110;BME280;14965;50.660;13.226;2024-02-16T08:41:09;94798.72;;;8.89;85.93
30110;BME280;14965;50.660;13.226;2024-02-16T08:43:35;94812.78;;;8.95;86.13
30110;BME280;14965;50.660;13.226;2024-02-16T08:46:01;94807.09;;;9.02;84.27
30110;BME280;14965;50.660;13.226;2024-02-16T08:48:27;94814.34;;;9.12;83.94
30110;BME280;14965;50.660;13.226;2024-02-16T08:50:52;94827.44;;;9.25;83.19
30110;BME280;14965;50.660;13.226;2024-02-16T08:53:18;94818.03;;;9.38;83.34
30110;BME280;14965;50.660;13.226;2024-02-16T08:55:46;94828.81;;;9.49;80.66
30110;BME280;14965;50.660;13.226;2024-02-16T08:58:12;94824.06;;;9.50;82.15
30110;BME280;14965;50.660;13.226;2024-02-16T09:00:38;94825.34;;;9.45;80.85
30110;BME280;14965;50.660;13.226;2024-02-16T09:03:04;94823.09;;;9.40;82.11
30110;BME280;14965;50.660;13.226;2024-02-16T09:05:30;94833.53;;;9.32;81.12
30110;BME280;14965;50.660;13.226;2024-02-16T09:07:56;94826.22;;;9.42;82.40
30110;BME280;14965;50.660;13.226;2024-02-16T09:10:23;94824.81;;;9.50;81.52
30110;BME280;14965;50.660;13.226;2024-02-16T09:12:50;94835.16;;;9.62;81.43
30110;BME280;14965;50.660;13.226;2024-02-16T09:15:16;94830.91;;;9.74;81.98
30110;BME280;14965;50.660;13.226;2024-02-16T09:17:45;94837.34;;;9.84;80.19
30110;BME280;14965;50.660;13.226;2024-02-16T09:20:11;94838.44;;;9.86;79.59
30110;BME280;14965;50.660;13.226;2024-02-16T09:22:40;94834.75;;;9.93;79.02
30110;BME280;14965;50.660;13.226;2024-02-16T09:25:07;94846.81;;;9.99;79.95
30110;BME280;14965;50.660;13.226;2024-02-16T09:27:33;94842.97;;;10.09;79.43
30110;BME280;14965;50.660;13.226;2024-02-16T09:30:00;94838.56;;;10.12;79.23
30110;BME280;14965;50.660;13.226;2024-02-16T09:32:26;94846.94;;;10.08;78.10
30110;BME280;14965;50.660;13.226;2024-02-16T09:34:52;94853.16;;;10.12;79.15
30110;BME280;14965;50.660;13.226;2024-02-16T09:37:18;94834.97;;;9.98;79.48
30110;BME280;14965;50.660;13.226;2024-02-16T09:39:43;94835.31;;;10.01;79.57
30110;BME280;14965;50.660;13.226;2024-02-16T09:42:09;94838.19;;;9.97;79.35
30110;BME280;14965;50.660;13.226;2024-02-16T09:44:36;94832.56;;;10.01;79.99
30110;BME280;14965;50.660;13.226;2024-02-16T09:47:04;94836.41;;;10.03;79.95
30110;BME280;14965;50.660;13.226;2024-02-16T09:49:30;94836.88;;;10.02;80.72
30110;BME280;14965;50.660;13.226;2024-02-16T09:52:02;94842.19;;;10.09;80.29
30110;BME280;14965;50.660;13.226;2024-02-16T09:54:31;94830.41;;;10.08;79.44
30110;BME280;14965;50.660;13.226;2024-02-16T09:56:57;94843.41;;;10.08;79.82
30110;BME280;14965;50.660;13.226;2024-02-16T09:59:23;94834.25;;;10.11;81.12
30110;BME280;14965;50.660;13.226;2024-02-16T10:01:59;94834.66;;;9.96;81.41
30110;BME280;14965;50.660;13.226;2024-02-16T10:04:27;94840.94;;;9.97;81.32
30110;BME280;14965;50.660;13.226;2024-02-16T10:06:53;94840.94;;;9.97;81.43
30110;BME280;14965;50.660;13.226;2024-02-16T10:09:23;94840.41;;;10.02;80.64
30110;BME280;14965;50.660;13.226;2024-02-16T10:11:49;94840.66;;;10.08;80.50
30110;BME280;14965;50.660;13.226;2024-02-16T10:14:15;94839.63;;;10.02;80.86
30110;BME280;14965;50.660;13.226;2024-02-16T10:16:41;94845.59;;;10.00;80.74
30110;BME280;14965;50.660;13.226;2024-02-16T10:19:08;94835.78;;;9.99;80.13
30110;BME280;14965;50.660;13.226;2024-02-16T10:21:36;94843.38;;;9.95;80.00
30110;BME280;14965;50.660;13.226;2024-02-16T10:24:05;94825.00;;;9.88;80.76
30110;BME280;14965;50.660;13.226;2024-02-16T10:26:31;94829.56;;;9.95;80.90
30110;BME280;14965;50.660;13.226;2024-02-16T10:28:57;94837.22;;;10.04;81.31
30110;BME280;14965;50.660;13.226;2024-02-16T10:31:25;94839.44;;;10.09;80.71
30110;BME280;14965;50.660;13.226;2024-02-16T10:33:51;94844.88;;;10.12;80.20
30110;BME280;14965;50.660;13.226;2024-02-16T10:36:18;94860.78;;;10.21;81.72
30110;BME280;14965;50.660;13.226;2024-02-16T10:38:48;94876.66;;;10.33;81.82
30110;BME280;14965;50.660;13.226;2024-02-16T10:41:18;94855.81;;;10.45;80.50
30110;BME280;14965;50.660;13.226;2024-02-16T10:43:48;94856.81;;;10.51;79.41
30110;BME280;14965;50.660;13.226;2024-02-16T10:46:15;94865.78;;;10.55;79.40
30110;BME280;14965;50.660;13.226;2024-02-16T10:48:41;94859.03;;;10.56;78.73
30110;BME280;14965;50.660;13.226;2024-02-16T10:51:09;94862.56;;;10.57;78.21
30110;BME280;14965;50.660;13.226;2024-02-16T10:53:36;94866.34;;;10.63;78.90
30110;BME280;14965;50.660;13.226;2024-02-16T10:56:07;94865.22;;;10.60;78.76
30110;BME280;14965;50.660;13.226;2024-02-16T10:58:33;94870.66;;;10.64;79.18
30110;BME280;14965;50.660;13.226;2024-02-16T11:01:08;94861.91;;;10.53;77.71
30110;BME280;14965;50.660;13.226;2024-02-16T11:03:38;94852.63;;;10.46;78.46
30110;BME280;14965;50.660;13.226;2024-02-16T11:06:14;94853.16;;;10.41;78.95
30110;BME280;14965;50.660;13.226;2024-02-16T11:08:40;94861.88;;;10.40;77.99
30110;BME280;14965;50.660;13.226;2024-02-16T11:11:08;94856.47;;;10.49;78.14
30110;BME280;14965;50.660;13.226;2024-02-16T11:13:35;94851.13;;;10.71;77.31
30110;BME280;14965;50.660;13.226;2024-02-16T11:16:03;94845.03;;;10.76;78.08
30110;BME280;14965;50.660;13.226;2024-02-16T11:18:37;94847.03;;;10.76;78.20
30110;BME280;14965;50.660;13.226;2024-02-16T11:21:04;94838.09;;;10.71;78.75
30110;BME280;14965;50.660;13.226;2024-02-16T11:23:31;94835.88;;;10.66;79.31
30110;BME280;14965;50.660;13.226;2024-02-16T11:26:00;94833.91;;;10.80;79.94
30110;BME280;14965;50.660;13.226;2024-02-16T11:28:29;94841.03;;;10.64;78.70
30110;BME280;14965;50.660;13.226;2024-02-16T11:30:56;94844.00;;;10.57;79.35
30110;BME280;14965;50.660;13.226;2024-02-16T11:33:22;94856.72;;;10.55;80.32
30110;BME280;14965;50.660;13.226;2024-02-16T11:35:55;94846.91;;;10.54;78.84
30110;BME280;14965;50.660;13.226;2024-02-16T11:38:22;94839.28;;;10.58;79.58
30110;BME280;14965;50.660;13.226;2024-02-16T11:40:56;94834.09;;;10.60;77.79
30110;BME280;14965;50.660;13.226;2024-02-16T11:43:23;94837.84;;;10.66;78.55
30110;BME280;14965;50.660;13.226;2024-02-16T11:45:51;94837.72;;;10.69;77.86
30110;BME280;14965;50.660;13.226;2024-02-16T11:48:20;94834.97;;;10.69;78.08
30110;BME280;14965;50.660;13.226;2024-02-16T11:50:48;94843.50;;;10.75;77.98
30110;BME280;14965;50.660;13.226;2024-02-16T11:53:19;94835.91;;;10.92;78.44
30110;BME280;14965;50.660;13.226;2024-02-16T11:55:49;94829.59;;;11.04;78.09
30110;BME280;14965;50.660;13.226;2024-02-16T11:58:16;94834.09;;;11.11;77.04
30110;BME280;14965;50.660;13.226;2024-02-16T12:00:43;94814.00;;;11.10;76.58
30110;BME280;14965;50.660;13.226;2024-02-16T12:03:10;94821.63;;;11.19;76.93
30110;BME280;14965;50.660;13.226;2024-02-16T12:05:37;94814.31;;;11.25;76.75
30110;BME280;14965;50.660;13.226;2024-02-16T12:08:05;94817.97;;;11.22;78.11
30110;BME280;14965;50.660;13.226;2024-02-16T12:10:31;94821.63;;;11.19;78.57
30110;BME280;14965;50.660;13.226;2024-02-16T12:12:58;94807.78;;;11.19;79.28
30110;BME280;14965;50.660;13.226;2024-02-16T12:15:24;94820.53;;;11.16;79.08
30110;BME280;14965;50.660;13.226;2024-02-16T12:17:59;94815.53;;;11.24;79.45
30110;BME280;14965;50.660;13.226;2024-02-16T12:20:29;94808.66;;;11.16;78.79
30110;BME280;14965;50.660;13.226;2024-02-16T12:22:55;94812.44;;;11.09;79.32
30110;BME280;14965;50.660;13.226;2024-02-16T12:25:21;94812.91;;;11.08;79.38
30110;BME280;14965;50.660;13.226;2024-02-16T12:27:47;94810.47;;;11.10;80.43
30110;BME280;14965;50.660;13.226;2024-02-16T12:30:14;94809.69;;;11.09;79.88
30110;BME280;14965;50.660;13.226;2024-02-16T12:32:39;94807.78;;;11.19;80.60
30110;BME280;14965;50.660;13.226;2024-02-16T12:35:07;94801.28;;;11.26;79.93
30110;BME280;14965;50.660;13.226;2024-02-16T12:37:35;94801.38;;;11.35;79.66
30110;BME280;14965;50.660;13.226;2024-02-16T12:40:01;94806.25;;;11.31;79.02
30110;BME280;14965;50.660;13.226;2024-02-16T12:42:26;94795.19;;;11.31;79.47
30110;BME280;14965;50.660;13.226;2024-02-16T12:44:52;94798.72;;;11.31;79.98
30110;BME280;14965;50.660;13.226;2024-02-16T12:47:18;94803.34;;;11.34;79.92
30110;BME280;14965;50.660;13.226;2024-02-16T12:49:44;94802.78;;;11.39;79.61